Hanseatic Scout — V2BM2 — position and weather

sailwx.info

Track history (hours):
 
Tides and Currents Weather Stations Pressure Air Temp Water Temp Dewpoint Dewpoint Depression Visibility Wind Speed Wind Dir Waves Ship Positions

Hanseatic Scout

Last reported at 2016-Jul-30 15:10 UTC. Time now 2016-Jul-31 05:25 UTC.
Position N 51°52' E 002°40'.

Length 89 m; draft 6 m.

Type: Ship. MMSI: 304867000.

Date/timePositionNaut miles runAvg speedWind from/ knotsBaromVisibWave heightAir tempDewpointWater temp
2016-Jul-30 15:10N 51°52' E 002°40'6 9.8
2016-Jul-30 14:33N 51°47' E 002°35'1110.7
2016-Jul-30 13:33N 51°39' E 002°24'1111.5
2016-Jul-30 12:34N 51°30' E 002°12'1211.5
2016-Jul-30 11:33N 51°19' E 002°08'1211.6
2016-Jul-30 10:33N 51°11' E 001°55'1312.7
2016-Jul-30 09:33N 51°03' E 001°39'1414.0
2016-Jul-30 08:33N 50°52' E 001°26'6111.4
2016-Jul-30 03:13N 50°19' E 000°05'811.4
2016-Jul-30 02:30N 50°17' W 000°07'1210.8
2016-Jul-30 01:22N 50°12' W 000°25'8 9.8
2016-Jul-30 00:34N 50°10' W 000°37'19210.5
2016-Jul-29 06:14N 48°56' W 005°10'6 9.5
2016-Jul-29 05:33N 48°52' W 005°18'9 9.4
2016-Jul-29 04:34N 48°48' W 005°31'48 9.5
2016-Jul-28 23:28N 48°05' W 006°07'449 9.3
2016-Jul-26 23:24N 41°05' W 009°48'5 6.4
2016-Jul-26 22:33N 40°60' W 009°48'30 7.4
2016-Jul-26 18:33N 40°30' W 009°49'9 8.6
2016-Jul-26 17:29N 40°21' W 009°49'9 8.8
2016-Jul-26 16:30N 40°13' W 009°49'8 8.7
2016-Jul-26 15:32N 40°04' W 009°49'9 8.6
2016-Jul-26 14:32N 39°56' W 009°49'17 8.5
2016-Jul-26 12:34N 39°39' W 009°49'9 8.7
2016-Jul-26 11:33N 39°30' W 009°49'9 8.7
2016-Jul-26 10:33N 39°21' W 009°49'9 9.0
2016-Jul-26 09:33N 39°12' W 009°50'9 9.1
2016-Jul-26 08:33N 39°03' W 009°50'9 8.9
2016-Jul-26 07:33N 38°54' W 009°50'9 9.2
2016-Jul-26 06:33N 38°45' W 009°50'9 9.1
2016-Jul-26 05:34N 38°37' W 009°46'10 9.6
2016-Jul-26 04:33N 38°30' W 009°38'9 9.4
2016-Jul-26 03:33N 38°24' W 009°29'9 9.0
2016-Jul-26 02:34N 38°17' W 009°21'10 9.9
2016-Jul-26 01:34N 38°10' W 009°12'1010.1
2016-Jul-26 00:34N 38°03' W 009°03'1010.4
2016-Jul-25 23:33N 37°55' W 008°54'2 2.4
2016-Jul-25 22:33N 37°56' W 008°51'0 0.0
2016-Jul-25 21:33N 37°56' W 008°51'0 0.0
2016-Jul-25 20:33N 37°56' W 008°51'0 0.0
2016-Jul-25 19:33N 37°56' W 008°51'0 0.0
2016-Jul-25 18:33N 37°56' W 008°51'0 0.0
2016-Jul-25 17:33N 37°56' W 008°51'0 0.0
2016-Jul-25 16:33N 37°56' W 008°51'0 0.0
2016-Jul-25 15:30N 37°56' W 008°51'0 0.0
2016-Jul-25 14:33N 37°56' W 008°51'0 0.0
2016-Jul-25 13:33N 37°56' W 008°51'0 0.0
2016-Jul-25 12:33N 37°56' W 008°51'0 0.0
2016-Jul-25 11:33N 37°56' W 008°51'0 0.0
2016-Jul-25 10:30N 37°56' W 008°51'0 0.0
2016-Jul-25 09:33N 37°56' W 008°51'0 0.0
2016-Jul-25 08:33N 37°56' W 008°51'0 0.0
2016-Jul-25 07:33N 37°56' W 008°51'0 0.0
2016-Jul-25 06:33N 37°56' W 008°51'0 0.0
2016-Jul-25 05:30N 37°56' W 008°51'0 0.0
2016-Jul-25 04:33N 37°56' W 008°51'0 0.0
2016-Jul-25 03:33N 37°56' W 008°51'0 0.0
2016-Jul-25 02:33N 37°56' W 008°51'0 0.0
2016-Jul-25 01:33N 37°56' W 008°51'0 0.0
2016-Jul-25 00:33N 37°56' W 008°51'0 0.0
2016-Jul-24 23:33N 37°56' W 008°51'0 0.0
2016-Jul-24 22:33N 37°56' W 008°51'0 0.0
2016-Jul-24 21:33N 37°56' W 008°51'0 0.0
2016-Jul-24 20:33N 37°56' W 008°51'0 0.0
2016-Jul-24 19:33N 37°56' W 008°51'0 0.0
2016-Jul-24 18:30N 37°56' W 008°51'0 0.0
2016-Jul-24 17:33N 37°56' W 008°51'0 0.0
2016-Jul-24 16:33N 37°56' W 008°51'0 0.0
2016-Jul-24 15:33N 37°56' W 008°51'0 0.0
2016-Jul-24 14:33N 37°56' W 008°51'0 0.0
2016-Jul-24 13:33N 37°56' W 008°51'0 0.0
2016-Jul-24 12:33N 37°56' W 008°51'0 0.0
2016-Jul-24 11:33N 37°56' W 008°51'0 0.0
2016-Jul-24 10:33N 37°56' W 008°51'0 0.0
2016-Jul-24 09:33N 37°56' W 008°51'0 0.0
2016-Jul-24 08:33N 37°56' W 008°51'0 0.0
2016-Jul-24 07:33N 37°56' W 008°51'0 0.0
2016-Jul-24 06:33N 37°56' W 008°51'0 0.0
2016-Jul-24 05:33N 37°56' W 008°51'0 0.0
2016-Jul-24 04:33N 37°56' W 008°51'0 0.0
2016-Jul-24 03:33N 37°56' W 008°51'0 0.0
2016-Jul-24 02:33N 37°56' W 008°51'0 0.0
2016-Jul-24 01:33N 37°56' W 008°51'0 0.0
2016-Jul-24 00:33N 37°56' W 008°51'0 0.0
2016-Jul-23 23:33N 37°56' W 008°51'0 0.0
2016-Jul-23 22:33N 37°56' W 008°51'0 0.0
2016-Jul-23 21:33N 37°56' W 008°51'0 0.0
2016-Jul-23 20:33N 37°56' W 008°51'0 0.3
2016-Jul-23 19:33N 37°56' W 008°51'7 6.7
2016-Jul-23 18:33N 37°50' W 008°55'1111.0
2016-Jul-23 17:33N 37°40' W 009°01'1111.0
2016-Jul-23 16:33N 37°30' W 009°06'1110.8
2016-Jul-23 15:33N 37°20' W 009°11'1110.8
2016-Jul-23 14:33N 37°10' W 009°16'12 9.9
2016-Jul-23 13:18N 36°58' W 009°20'14 8.2
2016-Jul-23 11:33N 36°45' W 009°11'8 8.3
2016-Jul-23 10:34N 36°42' W 009°01'8 7.8
2016-Jul-23 09:33N 36°35' W 008°56'8 8.2
2016-Jul-23 08:33N 36°27' W 008°53'9 9.0
2016-Jul-23 07:33N 36°19' W 008°49'10 9.6
2016-Jul-23 06:33N 36°10' W 008°45'  
Track history (hours):
 
Tides and Currents Weather Stations Pressure Air Temp Water Temp Dewpoint Dewpoint Depression Visibility Wind Speed Wind Dir Waves Ship Positions

Hanseatic Scout

Last reported at 2016-Jul-30 15:10 UTC. Time now 2016-Jul-31 05:25 UTC.
Position N 51°52' E 002°40'.

Length 89 m; draft 6 m.

Type: Ship. MMSI: 304867000.

Date/timePositionNaut miles runAvg speedWind from/ knotsBaromVisibWave heightAir tempDewpointWater temp
2016-Jul-30 15:10N 51°52' E 002°40'6 9.8
2016-Jul-30 14:33N 51°47' E 002°35'1110.7
2016-Jul-30 13:33N 51°39' E 002°24'1111.5
2016-Jul-30 12:34N 51°30' E 002°12'1211.5
2016-Jul-30 11:33N 51°19' E 002°08'1211.6
2016-Jul-30 10:33N 51°11' E 001°55'1312.7
2016-Jul-30 09:33N 51°03' E 001°39'1414.0
2016-Jul-30 08:33N 50°52' E 001°26'6111.4
2016-Jul-30 03:13N 50°19' E 000°05'811.4
2016-Jul-30 02:30N 50°17' W 000°07'1210.8
2016-Jul-30 01:22N 50°12' W 000°25'8 9.8
2016-Jul-30 00:34N 50°10' W 000°37'19210.5
2016-Jul-29 06:14N 48°56' W 005°10'6 9.5
2016-Jul-29 05:33N 48°52' W 005°18'9 9.4
2016-Jul-29 04:34N 48°48' W 005°31'48 9.5
2016-Jul-28 23:28N 48°05' W 006°07'449 9.3
2016-Jul-26 23:24N 41°05' W 009°48'5 6.4
2016-Jul-26 22:33N 40°60' W 009°48'30 7.4
2016-Jul-26 18:33N 40°30' W 009°49'9 8.6
2016-Jul-26 17:29N 40°21' W 009°49'9 8.8
2016-Jul-26 16:30N 40°13' W 009°49'8 8.7
2016-Jul-26 15:32N 40°04' W 009°49'9 8.6
2016-Jul-26 14:32N 39°56' W 009°49'17 8.5
2016-Jul-26 12:34N 39°39' W 009°49'9 8.7
2016-Jul-26 11:33N 39°30' W 009°49'9 8.7
2016-Jul-26 10:33N 39°21' W 009°49'9 9.0
2016-Jul-26 09:33N 39°12' W 009°50'9 9.1
2016-Jul-26 08:33N 39°03' W 009°50'9 8.9
2016-Jul-26 07:33N 38°54' W 009°50'9 9.2
2016-Jul-26 06:33N 38°45' W 009°50'9 9.1
2016-Jul-26 05:34N 38°37' W 009°46'10 9.6
2016-Jul-26 04:33N 38°30' W 009°38'9 9.4
2016-Jul-26 03:33N 38°24' W 009°29'9 9.0
2016-Jul-26 02:34N 38°17' W 009°21'10 9.9
2016-Jul-26 01:34N 38°10' W 009°12'1010.1
2016-Jul-26 00:34N 38°03' W 009°03'1010.4
2016-Jul-25 23:33N 37°55' W 008°54'2 2.4
2016-Jul-25 22:33N 37°56' W 008°51'0 0.0
2016-Jul-25 21:33N 37°56' W 008°51'0 0.0
2016-Jul-25 20:33N 37°56' W 008°51'0 0.0
2016-Jul-25 19:33N 37°56' W 008°51'0 0.0
2016-Jul-25 18:33N 37°56' W 008°51'0 0.0
2016-Jul-25 17:33N 37°56' W 008°51'0 0.0
2016-Jul-25 16:33N 37°56' W 008°51'0 0.0
2016-Jul-25 15:30N 37°56' W 008°51'0 0.0
2016-Jul-25 14:33N 37°56' W 008°51'0 0.0
2016-Jul-25 13:33N 37°56' W 008°51'0 0.0
2016-Jul-25 12:33N 37°56' W 008°51'0 0.0
2016-Jul-25 11:33N 37°56' W 008°51'0 0.0
2016-Jul-25 10:30N 37°56' W 008°51'0 0.0
2016-Jul-25 09:33N 37°56' W 008°51'0 0.0
2016-Jul-25 08:33N 37°56' W 008°51'0 0.0
2016-Jul-25 07:33N 37°56' W 008°51'0 0.0
2016-Jul-25 06:33N 37°56' W 008°51'0 0.0
2016-Jul-25 05:30N 37°56' W 008°51'0 0.0
2016-Jul-25 04:33N 37°56' W 008°51'0 0.0
2016-Jul-25 03:33N 37°56' W 008°51'0 0.0
2016-Jul-25 02:33N 37°56' W 008°51'0 0.0
2016-Jul-25 01:33N 37°56' W 008°51'0 0.0
2016-Jul-25 00:33N 37°56' W 008°51'0 0.0
2016-Jul-24 23:33N 37°56' W 008°51'0 0.0
2016-Jul-24 22:33N 37°56' W 008°51'0 0.0
2016-Jul-24 21:33N 37°56' W 008°51'0 0.0
2016-Jul-24 20:33N 37°56' W 008°51'0 0.0
2016-Jul-24 19:33N 37°56' W 008°51'0 0.0
2016-Jul-24 18:30N 37°56' W 008°51'0 0.0
2016-Jul-24 17:33N 37°56' W 008°51'0 0.0
2016-Jul-24 16:33N 37°56' W 008°51'0 0.0
2016-Jul-24 15:33N 37°56' W 008°51'0 0.0
2016-Jul-24 14:33N 37°56' W 008°51'0 0.0
2016-Jul-24 13:33N 37°56' W 008°51'0 0.0
2016-Jul-24 12:33N 37°56' W 008°51'0 0.0
2016-Jul-24 11:33N 37°56' W 008°51'0 0.0
2016-Jul-24 10:33N 37°56' W 008°51'0 0.0
2016-Jul-24 09:33N 37°56' W 008°51'0 0.0
2016-Jul-24 08:33N 37°56' W 008°51'0 0.0
2016-Jul-24 07:33N 37°56' W 008°51'0 0.0
2016-Jul-24 06:33N 37°56' W 008°51'0 0.0
2016-Jul-24 05:33N 37°56' W 008°51'0 0.0
2016-Jul-24 04:33N 37°56' W 008°51'0 0.0
2016-Jul-24 03:33N 37°56' W 008°51'0 0.0
2016-Jul-24 02:33N 37°56' W 008°51'0 0.0
2016-Jul-24 01:33N 37°56' W 008°51'0 0.0
2016-Jul-24 00:33N 37°56' W 008°51'0 0.0
2016-Jul-23 23:33N 37°56' W 008°51'0 0.0
2016-Jul-23 22:33N 37°56' W 008°51'0 0.0
2016-Jul-23 21:33N 37°56' W 008°51'0 0.0
2016-Jul-23 20:33N 37°56' W 008°51'0 0.3
2016-Jul-23 19:33N 37°56' W 008°51'7 6.7
2016-Jul-23 18:33N 37°50' W 008°55'1111.0
2016-Jul-23 17:33N 37°40' W 009°01'1111.0
2016-Jul-23 16:33N 37°30' W 009°06'1110.8
2016-Jul-23 15:33N 37°20' W 009°11'1110.8
2016-Jul-23 14:33N 37°10' W 009°16'12 9.9
2016-Jul-23 13:18N 36°58' W 009°20'14 8.2
2016-Jul-23 11:33N 36°45' W 009°11'8 8.3
2016-Jul-23 10:34N 36°42' W 009°01'8 7.8
2016-Jul-23 09:33N 36°35' W 008°56'8 8.2
2016-Jul-23 08:33N 36°27' W 008°53'9 9.0
2016-Jul-23 07:33N 36°19' W 008°49'10 9.6
2016-Jul-23 06:33N 36°10' W 008°45'  

Dump ship's entire track history